sensor_id;sensor_type;location;lat;lon;timestamp;P1;durP1;ratioP1;P2;durP2;ratioP2
14510;SDS011;7341;50.930;4.038;2022-12-24T00:14:27;27.83;;;5.97;;
14510;SDS011;7341;50.930;4.038;2022-12-24T00:16:55;38.67;;;6.90;;
14510;SDS011;7341;50.930;4.038;2022-12-24T00:22:44;35.43;;;6.47;;
14510;SDS011;7341;50.930;4.038;2022-12-24T00:56:58;22.63;;;4.63;;
14510;SDS011;7341;50.930;4.038;2022-12-24T01:06:32;24.07;;;4.63;;
14510;SDS011;7341;50.930;4.038;2022-12-24T01:12:08;27.23;;;5.57;;
14510;SDS011;7341;50.930;4.038;2022-12-24T01:28:14;33.27;;;6.03;;
14510;SDS011;7341;50.930;4.038;2022-12-24T01:33:49;33.27;;;6.20;;
14510;SDS011;7341;50.930;4.038;2022-12-24T01:36:35;28.47;;;5.97;;
14510;SDS011;7341;50.930;4.038;2022-12-24T01:42:26;32.80;;;5.73;;
14510;SDS011;7341;50.930;4.038;2022-12-24T01:48:36;33.07;;;6.17;;
14510;SDS011;7341;50.930;4.038;2022-12-24T01:54:27;42.42;;;8.00;;
14510;SDS011;7341;50.930;4.038;2022-12-24T02:00:19;29.90;;;6.40;;
14510;SDS011;7341;50.930;4.038;2022-12-24T02:06:24;40.43;;;6.33;;
14510;SDS011;7341;50.930;4.038;2022-12-24T02:12:13;40.20;;;6.53;;
14510;SDS011;7341;50.930;4.038;2022-12-24T02:18:03;36.17;;;5.87;;
14510;SDS011;7341;50.930;4.038;2022-12-24T02:40:45;32.10;;;5.33;;
14510;SDS011;7341;50.930;4.038;2022-12-24T02:46:39;17.23;;;3.80;;
14510;SDS011;7341;50.930;4.038;2022-12-24T02:52:29;20.23;;;4.20;;
14510;SDS011;7341;50.930;4.038;2022-12-24T02:58:24;19.30;;;3.83;;
14510;SDS011;7341;50.930;4.038;2022-12-24T03:11:23;14.63;;;4.17;;
14510;SDS011;7341;50.930;4.038;2022-12-24T03:17:13;23.80;;;4.87;;
14510;SDS011;7341;50.930;4.038;2022-12-24T03:33:13;13.63;;;3.67;;
14510;SDS011;7341;50.930;4.038;2022-12-24T03:39:03;18.40;;;4.40;;
14510;SDS011;7341;50.930;4.038;2022-12-24T03:44:52;24.83;;;4.37;;
14510;SDS011;7341;50.930;4.038;2022-12-24T03:50:43;23.23;;;6.03;;
14510;SDS011;7341;50.930;4.038;2022-12-24T03:56:32;26.17;;;4.87;;
14510;SDS011;7341;50.930;4.038;2022-12-24T04:09:08;29.13;;;5.97;;
14510;SDS011;7341;50.930;4.038;2022-12-24T04:18:22;34.13;;;5.80;;
14510;SDS011;7341;50.930;4.038;2022-12-24T04:24:43;32.33;;;6.20;;
14510;SDS011;7341;50.930;4.038;2022-12-24T04:27:37;28.10;;;5.23;;
14510;SDS011;7341;50.930;4.038;2022-12-24T04:47:08;26.87;;;5.70;;
14510;SDS011;7341;50.930;4.038;2022-12-24T04:56:39;34.53;;;5.57;;
14510;SDS011;7341;50.930;4.038;2022-12-24T04:59:21;30.83;;;5.97;;
14510;SDS011;7341;50.930;4.038;2022-12-24T05:05:12;30.10;;;5.57;;
14510;SDS011;7341;50.930;4.038;2022-12-24T05:11:00;29.13;;;5.80;;
14510;SDS011;7341;50.930;4.038;2022-12-24T05:13:44;30.70;;;5.80;;
14510;SDS011;7341;50.930;4.038;2022-12-24T05:16:16;26.87;;;5.00;;
14510;SDS011;7341;50.930;4.038;2022-12-24T05:19:00;28.23;;;5.47;;
14510;SDS011;7341;50.930;4.038;2022-12-24T05:28:12;29.30;;;6.30;;
14510;SDS011;7341;50.930;4.038;2022-12-24T05:40:37;31.73;;;6.23;;
14510;SDS011;7341;50.930;4.038;2022-12-24T05:46:47;27.53;;;5.97;;
14510;SDS011;7341;50.930;4.038;2022-12-24T05:56:14;30.87;;;5.80;;
14510;SDS011;7341;50.930;4.038;2022-12-24T05:59:22;36.67;;;6.43;;
14510;SDS011;7341;50.930;4.038;2022-12-24T06:02:23;37.60;;;6.27;;
14510;SDS011;7341;50.930;4.038;2022-12-24T06:05:19;26.70;;;5.80;;
14510;SDS011;7341;50.930;4.038;2022-12-24T06:14:09;38.30;;;6.60;;
14510;SDS011;7341;50.930;4.038;2022-12-24T06:22:36;38.60;;;6.30;;
14510;SDS011;7341;50.930;4.038;2022-12-24T06:25:23;31.53;;;6.83;;
14510;SDS011;7341;50.930;4.038;2022-12-24T06:31:09;39.63;;;6.23;;
14510;SDS011;7341;50.930;4.038;2022-12-24T06:33:50;32.47;;;6.33;;
14510;SDS011;7341;50.930;4.038;2022-12-24T06:36:24;35.47;;;7.40;;
14510;SDS011;7341;50.930;4.038;2022-12-24T06:38:57;29.40;;;6.10;;
14510;SDS011;7341;50.930;4.038;2022-12-24T06:57:54;33.57;;;6.40;;
14510;SDS011;7341;50.930;4.038;2022-12-24T07:06:55;30.07;;;5.70;;
14510;SDS011;7341;50.930;4.038;2022-12-24T07:10:41;27.60;;;5.77;;
14510;SDS011;7341;50.930;4.038;2022-12-24T07:16:17;34.83;;;6.27;;
14510;SDS011;7341;50.930;4.038;2022-12-24T07:19:21;31.97;;;7.70;;
14510;SDS011;7341;50.930;4.038;2022-12-24T07:21:54;49.40;;;7.17;;
14510;SDS011;7341;50.930;4.038;2022-12-24T07:27:33;37.13;;;6.50;;
14510;SDS011;7341;50.930;4.038;2022-12-24T07:32:31;25.53;;;6.30;;
14510;SDS011;7341;50.930;4.038;2022-12-24T07:35:17;36.17;;;7.13;;
14510;SDS011;7341;50.930;4.038;2022-12-24T07:54:37;31.83;;;7.37;;
14510;SDS011;7341;50.930;4.038;2022-12-24T07:57:15;32.87;;;7.07;;
14510;SDS011;7341;50.930;4.038;2022-12-24T08:06:44;35.27;;;7.70;;
14510;SDS011;7341;50.930;4.038;2022-12-24T08:28:51;36.70;;;7.57;;
14510;SDS011;7341;50.930;4.038;2022-12-24T08:31:32;36.47;;;7.80;;
14510;SDS011;7341;50.930;4.038;2022-12-24T08:34:03;35.10;;;7.37;;
14510;SDS011;7341;50.930;4.038;2022-12-24T08:36:40;35.77;;;8.13;;
14510;SDS011;7341;50.930;4.038;2022-12-24T08:39:07;28.73;;;6.77;;
14510;SDS011;7341;50.930;4.038;2022-12-24T08:41:36;34.47;;;6.60;;
14510;SDS011;7341;50.930;4.038;2022-12-24T08:44:03;38.03;;;6.87;;
14510;SDS011;7341;50.930;4.038;2022-12-24T08:46:32;33.37;;;6.80;;
14510;SDS011;7341;50.930;4.038;2022-12-24T08:48:58;30.23;;;6.90;;
14510;SDS011;7341;50.930;4.038;2022-12-24T08:51:28;40.67;;;6.87;;
14510;SDS011;7341;50.930;4.038;2022-12-24T08:53:56;35.33;;;6.90;;
14510;SDS011;7341;50.930;4.038;2022-12-24T08:56:24;35.50;;;7.47;;
14510;SDS011;7341;50.930;4.038;2022-12-24T08:58:53;28.50;;;6.10;;
14510;SDS011;7341;50.930;4.038;2022-12-24T09:01:23;32.53;;;6.47;;
14510;SDS011;7341;50.930;4.038;2022-12-24T09:03:50;35.00;;;7.60;;
14510;SDS011;7341;50.930;4.038;2022-12-24T09:06:16;33.50;;;6.27;;
14510;SDS011;7341;50.930;4.038;2022-12-24T09:08:44;36.03;;;7.10;;
14510;SDS011;7341;50.930;4.038;2022-12-24T09:11:12;29.97;;;6.33;;
14510;SDS011;7341;50.930;4.038;2022-12-24T09:13:40;35.70;;;7.37;;
14510;SDS011;7341;50.930;4.038;2022-12-24T09:16:10;31.53;;;7.77;;
14510;SDS011;7341;50.930;4.038;2022-12-24T09:18:37;35.37;;;7.07;;
14510;SDS011;7341;50.930;4.038;2022-12-24T09:21:05;37.07;;;7.43;;
14510;SDS011;7341;50.930;4.038;2022-12-24T09:23:34;36.50;;;6.83;;
14510;SDS011;7341;50.930;4.038;2022-12-24T09:26:04;33.40;;;7.50;;
14510;SDS011;7341;50.930;4.038;2022-12-24T09:28:32;32.03;;;7.00;;
14510;SDS011;7341;50.930;4.038;2022-12-24T09:31:00;30.17;;;7.27;;
14510;SDS011;7341;50.930;4.038;2022-12-24T09:33:30;29.57;;;7.17;;
14510;SDS011;7341;50.930;4.038;2022-12-24T09:35:58;30.63;;;6.40;;
14510;SDS011;7341;50.930;4.038;2022-12-24T09:38:27;37.73;;;7.33;;
14510;SDS011;7341;50.930;4.038;2022-12-24T09:40:56;41.97;;;7.13;;
14510;SDS011;7341;50.930;4.038;2022-12-24T09:43:28;39.53;;;6.43;;
14510;SDS011;7341;50.930;4.038;2022-12-24T09:46:01;32.20;;;6.77;;
14510;SDS011;7341;50.930;4.038;2022-12-24T09:48:37;27.00;;;6.13;;
14510;SDS011;7341;50.930;4.038;2022-12-24T09:51:08;44.20;;;8.80;;
14510;SDS011;7341;50.930;4.038;2022-12-24T09:53:38;31.93;;;7.07;;
14510;SDS011;7341;50.930;4.038;2022-12-24T09:56:11;41.73;;;7.87;;
14510;SDS011;7341;50.930;4.038;2022-12-24T09:58:42;36.40;;;6.93;;
14510;SDS011;7341;50.930;4.038;2022-12-24T10:01:14;31.03;;;7.27;;
14510;SDS011;7341;50.930;4.038;2022-12-24T10:03:44;33.43;;;8.30;;
14510;SDS011;7341;50.930;4.038;2022-12-24T10:06:13;32.43;;;7.30;;
14510;SDS011;7341;50.930;4.038;2022-12-24T10:08:45;42.90;;;7.07;;
14510;SDS011;7341;50.930;4.038;2022-12-24T10:11:26;28.93;;;6.50;;
14510;SDS011;7341;50.930;4.038;2022-12-24T10:14:00;31.47;;;7.27;;
14510;SDS011;7341;50.930;4.038;2022-12-24T10:16:36;35.70;;;7.53;;
14510;SDS011;7341;50.930;4.038;2022-12-24T10:19:15;39.30;;;10.20;;
14510;SDS011;7341;50.930;4.038;2022-12-24T10:21:51;35.40;;;7.17;;
14510;SDS011;7341;50.930;4.038;2022-12-24T10:24:27;33.77;;;7.20;;
14510;SDS011;7341;50.930;4.038;2022-12-24T10:27:00;32.20;;;7.53;;
14510;SDS011;7341;50.930;4.038;2022-12-24T10:29:38;38.13;;;7.50;;
14510;SDS011;7341;50.930;4.038;2022-12-24T10:32:13;29.43;;;6.53;;
14510;SDS011;7341;50.930;4.038;2022-12-24T10:34:52;29.60;;;7.03;;
14510;SDS011;7341;50.930;4.038;2022-12-24T10:37:27;35.40;;;7.47;;
14510;SDS011;7341;50.930;4.038;2022-12-24T10:39:59;21.70;;;5.57;;
14510;SDS011;7341;50.930;4.038;2022-12-24T10:42:30;25.67;;;6.90;;
14510;SDS011;7341;50.930;4.038;2022-12-24T10:45:03;32.50;;;6.50;;
14510;SDS011;7341;50.930;4.038;2022-12-24T10:47:32;38.53;;;9.10;;
14510;SDS011;7341;50.930;4.038;2022-12-24T10:50:04;32.57;;;6.83;;
14510;SDS011;7341;50.930;4.038;2022-12-24T10:52:39;30.53;;;7.73;;
14510;SDS011;7341;50.930;4.038;2022-12-24T10:55:10;35.57;;;6.93;;
14510;SDS011;7341;50.930;4.038;2022-12-24T10:57:55;37.10;;;7.67;;
14510;SDS011;7341;50.930;4.038;2022-12-24T11:00:25;28.33;;;6.70;;
14510;SDS011;7341;50.930;4.038;2022-12-24T11:03:04;27.90;;;6.90;;
14510;SDS011;7341;50.930;4.038;2022-12-24T11:05:34;29.53;;;7.00;;
14510;SDS011;7341;50.930;4.038;2022-12-24T11:08:03;35.57;;;7.17;;
14510;SDS011;7341;50.930;4.038;2022-12-24T11:10:32;30.87;;;7.20;;
14510;SDS011;7341;50.930;4.038;2022-12-24T11:13:01;31.40;;;6.97;;
14510;SDS011;7341;50.930;4.038;2022-12-24T11:15:31;40.10;;;8.98;;
14510;SDS011;7341;50.930;4.038;2022-12-24T11:18:02;29.73;;;7.73;;
14510;SDS011;7341;50.930;4.038;2022-12-24T11:20:33;31.70;;;7.17;;
14510;SDS011;7341;50.930;4.038;2022-12-24T11:23:12;34.00;;;7.60;;
14510;SDS011;7341;50.930;4.038;2022-12-24T11:25:45;33.07;;;7.30;;
14510;SDS011;7341;50.930;4.038;2022-12-24T11:30:54;31.00;;;6.97;;
14510;SDS011;7341;50.930;4.038;2022-12-24T11:33:24;29.97;;;7.97;;
14510;SDS011;7341;50.930;4.038;2022-12-24T11:36:03;29.70;;;7.47;;
14510;SDS011;7341;50.930;4.038;2022-12-24T11:38:33;39.53;;;8.00;;
14510;SDS011;7341;50.930;4.038;2022-12-24T11:41:08;33.47;;;7.63;;
14510;SDS011;7341;50.930;4.038;2022-12-24T11:46:17;38.60;;;7.97;;
14510;SDS011;7341;50.930;4.038;2022-12-24T11:48:46;36.20;;;7.63;;
14510;SDS011;7341;50.930;4.038;2022-12-24T11:51:23;32.20;;;8.30;;
14510;SDS011;7341;50.930;4.038;2022-12-24T11:53:57;35.23;;;8.13;;
14510;SDS011;7341;50.930;4.038;2022-12-24T11:56:31;36.63;;;10.80;;
14510;SDS011;7341;50.930;4.038;2022-12-24T11:59:04;29.80;;;10.00;;
14510;SDS011;7341;50.930;4.038;2022-12-24T12:01:43;37.30;;;8.97;;
14510;SDS011;7341;50.930;4.038;2022-12-24T12:04:16;33.73;;;8.63;;
14510;SDS011;7341;50.930;4.038;2022-12-24T12:06:54;34.23;;;8.73;;
14510;SDS011;7341;50.930;4.038;2022-12-24T12:09:27;32.27;;;8.23;;
14510;SDS011;7341;50.930;4.038;2022-12-24T12:11:59;38.63;;;9.23;;
14510;SDS011;7341;50.930;4.038;2022-12-24T12:14:35;30.33;;;7.43;;
14510;SDS011;7341;50.930;4.038;2022-12-24T12:17:10;30.83;;;7.40;;
14510;SDS011;7341;50.930;4.038;2022-12-24T12:19:52;32.30;;;7.50;;
14510;SDS011;7341;50.930;4.038;2022-12-24T12:22:29;26.50;;;6.47;;
14510;SDS011;7341;50.930;4.038;2022-12-24T12:25:04;30.43;;;6.33;;
14510;SDS011;7341;50.930;4.038;2022-12-24T12:27:50;22.50;;;7.20;;
14510;SDS011;7341;50.930;4.038;2022-12-24T12:30:21;25.83;;;6.63;;
14510;SDS011;7341;50.930;4.038;2022-12-24T12:32:52;24.00;;;6.57;;
14510;SDS011;7341;50.930;4.038;2022-12-24T12:35:29;24.27;;;7.20;;
14510;SDS011;7341;50.930;4.038;2022-12-24T12:38:04;31.13;;;8.30;;
14510;SDS011;7341;50.930;4.038;2022-12-24T12:40:44;35.15;;;9.10;;
14510;SDS011;7341;50.930;4.038;2022-12-24T12:43:27;31.83;;;7.97;;
14510;SDS011;7341;50.930;4.038;2022-12-24T12:46:19;34.47;;;7.70;;
14510;SDS011;7341;50.930;4.038;2022-12-24T12:48:58;24.67;;;7.30;;
14510;SDS011;7341;50.930;4.038;2022-12-24T12:51:37;34.37;;;7.60;;
14510;SDS011;7341;50.930;4.038;2022-12-24T12:54:16;29.97;;;7.33;;
14510;SDS011;7341;50.930;4.038;2022-12-24T12:56:55;27.53;;;8.13;;
14510;SDS011;7341;50.930;4.038;2022-12-24T12:59:32;30.97;;;7.07;;
14510;SDS011;7341;50.930;4.038;2022-12-24T13:02:17;28.03;;;7.90;;
14510;SDS011;7341;50.930;4.038;2022-12-24T13:05:18;25.40;;;7.70;;
14510;SDS011;7341;50.930;4.038;2022-12-24T13:11:19;34.07;;;8.47;;
14510;SDS011;7341;50.930;4.038;2022-12-24T13:14:29;31.63;;;8.00;;
14510;SDS011;7341;50.930;4.038;2022-12-24T13:20:23;30.07;;;7.30;;
14510;SDS011;7341;50.930;4.038;2022-12-24T13:22:56;35.10;;;7.63;;
14510;SDS011;7341;50.930;4.038;2022-12-24T13:25:35;33.90;;;7.53;;
14510;SDS011;7341;50.930;4.038;2022-12-24T13:28:15;29.20;;;7.40;;
14510;SDS011;7341;50.930;4.038;2022-12-24T13:33:54;30.83;;;7.17;;
14510;SDS011;7341;50.930;4.038;2022-12-24T13:36:59;34.78;;;8.98;;
14510;SDS011;7341;50.930;4.038;2022-12-24T13:42:46;29.63;;;6.83;;
14510;SDS011;7341;50.930;4.038;2022-12-24T13:45:45;25.47;;;5.77;;
14510;SDS011;7341;50.930;4.038;2022-12-24T13:51:16;28.77;;;6.93;;
14510;SDS011;7341;50.930;4.038;2022-12-24T13:53:54;25.23;;;6.37;;
14510;SDS011;7341;50.930;4.038;2022-12-24T13:56:29;23.67;;;6.77;;
14510;SDS011;7341;50.930;4.038;2022-12-24T13:59:10;27.67;;;7.17;;
14510;SDS011;7341;50.930;4.038;2022-12-24T14:01:49;24.23;;;5.90;;
14510;SDS011;7341;50.930;4.038;2022-12-24T14:04:20;24.40;;;6.20;;
14510;SDS011;7341;50.930;4.038;2022-12-24T14:06:51;27.17;;;6.37;;
14510;SDS011;7341;50.930;4.038;2022-12-24T14:09:23;31.13;;;6.67;;
14510;SDS011;7341;50.930;4.038;2022-12-24T14:18:02;27.43;;;6.30;;
14510;SDS011;7341;50.930;4.038;2022-12-24T14:20:31;24.87;;;5.80;;
14510;SDS011;7341;50.930;4.038;2022-12-24T14:25:30;24.53;;;6.30;;
14510;SDS011;7341;50.930;4.038;2022-12-24T14:28:02;32.83;;;7.10;;
14510;SDS011;7341;50.930;4.038;2022-12-24T14:30:32;19.13;;;5.70;;
14510;SDS011;7341;50.930;4.038;2022-12-24T14:35:34;30.33;;;6.80;;
14510;SDS011;7341;50.930;4.038;2022-12-24T14:38:04;31.53;;;6.80;;
14510;SDS011;7341;50.930;4.038;2022-12-24T14:40:39;33.67;;;6.87;;
14510;SDS011;7341;50.930;4.038;2022-12-24T14:43:25;27.83;;;7.10;;
14510;SDS011;7341;50.930;4.038;2022-12-24T14:46:06;28.03;;;7.83;;
14510;SDS011;7341;50.930;4.038;2022-12-24T14:48:49;28.97;;;8.37;;
14510;SDS011;7341;50.930;4.038;2022-12-24T14:51:21;30.23;;;9.60;;
14510;SDS011;7341;50.930;4.038;2022-12-24T14:54:03;35.03;;;10.23;;
14510;SDS011;7341;50.930;4.038;2022-12-24T14:56:45;31.90;;;9.60;;
14510;SDS011;7341;50.930;4.038;2022-12-24T14:59:15;35.07;;;10.37;;
14510;SDS011;7341;50.930;4.038;2022-12-24T15:01:46;37.78;;;12.25;;
14510;SDS011;7341;50.930;4.038;2022-12-24T15:04:17;35.13;;;10.40;;
14510;SDS011;7341;50.930;4.038;2022-12-24T15:09:23;32.07;;;10.07;;
14510;SDS011;7341;50.930;4.038;2022-12-24T15:11:54;34.23;;;10.03;;
14510;SDS011;7341;50.930;4.038;2022-12-24T15:14:29;34.10;;;11.17;;
14510;SDS011;7341;50.930;4.038;2022-12-24T15:17:08;34.83;;;10.93;;
14510;SDS011;7341;50.930;4.038;2022-12-24T15:19:48;36.47;;;10.67;;
14510;SDS011;7341;50.930;4.038;2022-12-24T15:22:24;33.23;;;9.77;;
14510;SDS011;7341;50.930;4.038;2022-12-24T15:25:00;29.80;;;9.97;;
14510;SDS011;7341;50.930;4.038;2022-12-24T15:27:31;35.17;;;10.43;;
14510;SDS011;7341;50.930;4.038;2022-12-24T15:30:03;35.57;;;10.07;;
14510;SDS011;7341;50.930;4.038;2022-12-24T15:32:41;34.77;;;10.30;;
14510;SDS011;7341;50.930;4.038;2022-12-24T15:38:14;30.23;;;8.97;;
14510;SDS011;7341;50.930;4.038;2022-12-24T15:40:56;32.83;;;8.50;;
14510;SDS011;7341;50.930;4.038;2022-12-24T15:43:30;41.83;;;9.33;;
14510;SDS011;7341;50.930;4.038;2022-12-24T15:46:01;35.93;;;10.60;;
14510;SDS011;7341;50.930;4.038;2022-12-24T15:48:29;33.80;;;9.47;;
14510;SDS011;7341;50.930;4.038;2022-12-24T15:51:01;34.37;;;11.43;;
14510;SDS011;7341;50.930;4.038;2022-12-24T15:53:34;33.53;;;9.03;;
14510;SDS011;7341;50.930;4.038;2022-12-24T15:56:26;33.43;;;8.13;;
14510;SDS011;7341;50.930;4.038;2022-12-24T16:01:55;39.53;;;8.50;;
14510;SDS011;7341;50.930;4.038;2022-12-24T16:04:25;37.60;;;11.37;;
14510;SDS011;7341;50.930;4.038;2022-12-24T16:07:00;34.87;;;8.30;;
14510;SDS011;7341;50.930;4.038;2022-12-24T16:09:40;32.83;;;9.10;;
14510;SDS011;7341;50.930;4.038;2022-12-24T16:12:16;30.93;;;7.67;;
14510;SDS011;7341;50.930;4.038;2022-12-24T16:17:19;32.83;;;7.33;;
14510;SDS011;7341;50.930;4.038;2022-12-24T16:19:54;37.97;;;8.03;;
14510;SDS011;7341;50.930;4.038;2022-12-24T16:22:27;39.63;;;9.03;;
14510;SDS011;7341;50.930;4.038;2022-12-24T16:24:56;27.47;;;8.37;;
14510;SDS011;7341;50.930;4.038;2022-12-24T16:27:23;34.57;;;8.63;;
14510;SDS011;7341;50.930;4.038;2022-12-24T16:29:56;39.50;;;9.20;;
14510;SDS011;7341;50.930;4.038;2022-12-24T16:32:28;40.67;;;9.40;;
14510;SDS011;7341;50.930;4.038;2022-12-24T16:34:58;24.83;;;8.07;;
14510;SDS011;7341;50.930;4.038;2022-12-24T16:37:28;32.50;;;8.83;;
14510;SDS011;7341;50.930;4.038;2022-12-24T16:40:01;40.73;;;9.43;;
14510;SDS011;7341;50.930;4.038;2022-12-24T16:42:34;33.17;;;8.20;;
14510;SDS011;7341;50.930;4.038;2022-12-24T16:45:21;37.97;;;9.10;;
14510;SDS011;7341;50.930;4.038;2022-12-24T16:50:18;29.93;;;9.13;;
14510;SDS011;7341;50.930;4.038;2022-12-24T16:52:47;31.10;;;9.37;;
14510;SDS011;7341;50.930;4.038;2022-12-24T16:55:17;34.70;;;9.60;;
14510;SDS011;7341;50.930;4.038;2022-12-24T16:57:44;40.60;;;10.33;;
14510;SDS011;7341;50.930;4.038;2022-12-24T17:00:13;28.93;;;9.57;;
14510;SDS011;7341;50.930;4.038;2022-12-24T17:02:48;34.70;;;9.63;;
14510;SDS011;7341;50.930;4.038;2022-12-24T17:05:15;35.77;;;9.70;;
14510;SDS011;7341;50.930;4.038;2022-12-24T17:07:42;28.50;;;8.73;;
14510;SDS011;7341;50.930;4.038;2022-12-24T17:10:11;30.87;;;8.10;;
14510;SDS011;7341;50.930;4.038;2022-12-24T17:12:38;36.43;;;9.27;;
14510;SDS011;7341;50.930;4.038;2022-12-24T17:15:06;33.90;;;8.87;;
14510;SDS011;7341;50.930;4.038;2022-12-24T17:17:33;27.03;;;8.47;;
14510;SDS011;7341;50.930;4.038;2022-12-24T17:20:00;38.80;;;8.97;;
14510;SDS011;7341;50.930;4.038;2022-12-24T17:22:28;36.33;;;9.07;;
14510;SDS011;7341;50.930;4.038;2022-12-24T17:24:55;33.60;;;8.57;;
14510;SDS011;7341;50.930;4.038;2022-12-24T17:27:23;34.97;;;9.73;;
14510;SDS011;7341;50.930;4.038;2022-12-24T17:29:50;34.43;;;8.90;;
14510;SDS011;7341;50.930;4.038;2022-12-24T17:32:17;34.40;;;8.37;;
14510;SDS011;7341;50.930;4.038;2022-12-24T17:34:44;36.03;;;8.90;;
14510;SDS011;7341;50.930;4.038;2022-12-24T17:37:11;31.73;;;7.77;;
14510;SDS011;7341;50.930;4.038;2022-12-24T17:39:38;36.33;;;8.33;;
14510;SDS011;7341;50.930;4.038;2022-12-24T17:42:04;29.73;;;7.67;;
14510;SDS011;7341;50.930;4.038;2022-12-24T17:44:33;24.70;;;6.80;;
14510;SDS011;7341;50.930;4.038;2022-12-24T17:46:59;36.23;;;8.70;;
14510;SDS011;7341;50.930;4.038;2022-12-24T17:49:29;32.07;;;8.43;;
14510;SDS011;7341;50.930;4.038;2022-12-24T17:51:56;29.33;;;7.70;;
14510;SDS011;7341;50.930;4.038;2022-12-24T17:54:23;31.80;;;6.97;;
14510;SDS011;7341;50.930;4.038;2022-12-24T17:56:50;28.23;;;7.30;;
14510;SDS011;7341;50.930;4.038;2022-12-24T17:59:16;32.30;;;7.70;;
14510;SDS011;7341;50.930;4.038;2022-12-24T18:01:45;24.03;;;7.17;;
14510;SDS011;7341;50.930;4.038;2022-12-24T18:04:11;26.03;;;6.73;;
14510;SDS011;7341;50.930;4.038;2022-12-24T18:06:38;29.47;;;6.60;;
14510;SDS011;7341;50.930;4.038;2022-12-24T18:09:05;35.10;;;6.50;;
14510;SDS011;7341;50.930;4.038;2022-12-24T18:11:33;25.87;;;6.90;;
14510;SDS011;7341;50.930;4.038;2022-12-24T18:14:01;34.27;;;7.60;;
14510;SDS011;7341;50.930;4.038;2022-12-24T18:16:33;33.60;;;7.10;;
14510;SDS011;7341;50.930;4.038;2022-12-24T18:19:04;25.47;;;6.63;;
14510;SDS011;7341;50.930;4.038;2022-12-24T18:21:36;24.27;;;6.30;;
14510;SDS011;7341;50.930;4.038;2022-12-24T18:24:03;27.10;;;6.93;;
14510;SDS011;7341;50.930;4.038;2022-12-24T18:26:31;23.17;;;6.60;;
14510;SDS011;7341;50.930;4.038;2022-12-24T18:28:58;20.47;;;6.80;;
14510;SDS011;7341;50.930;4.038;2022-12-24T18:31:28;27.30;;;7.90;;
14510;SDS011;7341;50.930;4.038;2022-12-24T18:33:57;25.37;;;7.47;;
14510;SDS011;7341;50.930;4.038;2022-12-24T18:36:25;26.03;;;7.23;;
14510;SDS011;7341;50.930;4.038;2022-12-24T18:38:53;25.63;;;6.87;;
14510;SDS011;7341;50.930;4.038;2022-12-24T18:41:22;25.03;;;6.90;;
14510;SDS011;7341;50.930;4.038;2022-12-24T18:43:53;23.90;;;6.83;;
14510;SDS011;7341;50.930;4.038;2022-12-24T18:46:22;26.47;;;7.10;;
14510;SDS011;7341;50.930;4.038;2022-12-24T18:48:50;28.77;;;8.73;;
14510;SDS011;7341;50.930;4.038;2022-12-24T18:51:18;29.60;;;8.37;;
14510;SDS011;7341;50.930;4.038;2022-12-24T18:53:48;25.20;;;8.17;;
14510;SDS011;7341;50.930;4.038;2022-12-24T18:56:16;28.20;;;8.70;;
14510;SDS011;7341;50.930;4.038;2022-12-24T18:58:44;28.50;;;7.30;;
14510;SDS011;7341;50.930;4.038;2022-12-24T19:01:11;24.80;;;6.97;;
14510;SDS011;7341;50.930;4.038;2022-12-24T19:03:39;19.30;;;6.60;;
14510;SDS011;7341;50.930;4.038;2022-12-24T19:06:06;22.73;;;7.50;;
14510;SDS011;7341;50.930;4.038;2022-12-24T19:08:34;24.30;;;7.07;;
14510;SDS011;7341;50.930;4.038;2022-12-24T19:11:02;23.00;;;7.30;;
14510;SDS011;7341;50.930;4.038;2022-12-24T19:13:29;26.23;;;7.13;;
14510;SDS011;7341;50.930;4.038;2022-12-24T19:15:58;28.57;;;7.70;;
14510;SDS011;7341;50.930;4.038;2022-12-24T19:18:26;23.10;;;6.60;;
14510;SDS011;7341;50.930;4.038;2022-12-24T19:20:53;30.13;;;9.20;;
14510;SDS011;7341;50.930;4.038;2022-12-24T19:23:19;25.60;;;7.40;;
14510;SDS011;7341;50.930;4.038;2022-12-24T19:25:46;19.10;;;6.77;;
14510;SDS011;7341;50.930;4.038;2022-12-24T19:28:15;29.50;;;7.27;;
14510;SDS011;7341;50.930;4.038;2022-12-24T19:30:42;29.70;;;6.57;;
14510;SDS011;7341;50.930;4.038;2022-12-24T19:33:09;17.37;;;5.70;;
14510;SDS011;7341;50.930;4.038;2022-12-24T19:35:36;23.27;;;5.97;;
14510;SDS011;7341;50.930;4.038;2022-12-24T19:38:03;19.80;;;7.00;;
14510;SDS011;7341;50.930;4.038;2022-12-24T19:40:36;20.50;;;6.77;;
14510;SDS011;7341;50.930;4.038;2022-12-24T19:43:03;19.07;;;6.67;;
14510;SDS011;7341;50.930;4.038;2022-12-24T19:45:32;25.67;;;7.20;;
14510;SDS011;7341;50.930;4.038;2022-12-24T19:47:58;26.40;;;6.70;;
14510;SDS011;7341;50.930;4.038;2022-12-24T19:50:25;20.70;;;6.40;;
14510;SDS011;7341;50.930;4.038;2022-12-24T19:52:52;23.50;;;6.97;;
14510;SDS011;7341;50.930;4.038;2022-12-24T19:55:19;20.53;;;6.50;;
14510;SDS011;7341;50.930;4.038;2022-12-24T19:57:45;20.93;;;6.87;;
14510;SDS011;7341;50.930;4.038;2022-12-24T20:00:12;23.50;;;6.93;;
14510;SDS011;7341;50.930;4.038;2022-12-24T20:02:41;22.03;;;7.07;;
14510;SDS011;7341;50.930;4.038;2022-12-24T20:05:08;20.97;;;6.50;;
14510;SDS011;7341;50.930;4.038;2022-12-24T20:07:35;28.17;;;7.43;;
14510;SDS011;7341;50.930;4.038;2022-12-24T20:10:02;25.57;;;6.53;;
14510;SDS011;7341;50.930;4.038;2022-12-24T20:12:29;21.77;;;7.37;;
14510;SDS011;7341;50.930;4.038;2022-12-24T20:14:56;24.80;;;7.50;;
14510;SDS011;7341;50.930;4.038;2022-12-24T20:17:24;24.60;;;7.47;;
14510;SDS011;7341;50.930;4.038;2022-12-24T20:19:52;20.97;;;6.93;;
14510;SDS011;7341;50.930;4.038;2022-12-24T20:22:19;25.63;;;7.77;;
14510;SDS011;7341;50.930;4.038;2022-12-24T20:24:45;21.00;;;6.97;;
14510;SDS011;7341;50.930;4.038;2022-12-24T20:27:12;21.50;;;7.07;;
14510;SDS011;7341;50.930;4.038;2022-12-24T20:29:39;17.03;;;7.00;;
14510;SDS011;7341;50.930;4.038;2022-12-24T20:32:06;26.53;;;7.13;;
14510;SDS011;7341;50.930;4.038;2022-12-24T20:34:32;19.20;;;6.73;;
14510;SDS011;7341;50.930;4.038;2022-12-24T20:37:02;23.20;;;6.87;;
14510;SDS011;7341;50.930;4.038;2022-12-24T20:39:28;15.97;;;6.43;;
14510;SDS011;7341;50.930;4.038;2022-12-24T20:41:55;15.17;;;7.10;;
14510;SDS011;7341;50.930;4.038;2022-12-24T20:44:22;21.17;;;8.10;;
14510;SDS011;7341;50.930;4.038;2022-12-24T20:46:48;21.43;;;7.50;;
14510;SDS011;7341;50.930;4.038;2022-12-24T20:49:15;18.40;;;6.53;;
14510;SDS011;7341;50.930;4.038;2022-12-24T20:51:42;24.77;;;7.37;;
14510;SDS011;7341;50.930;4.038;2022-12-24T20:54:10;21.97;;;7.23;;
14510;SDS011;7341;50.930;4.038;2022-12-24T20:56:37;19.00;;;6.97;;
14510;SDS011;7341;50.930;4.038;2022-12-24T20:59:04;24.23;;;7.13;;
14510;SDS011;7341;50.930;4.038;2022-12-24T21:01:31;17.20;;;6.40;;
14510;SDS011;7341;50.930;4.038;2022-12-24T21:04:04;19.07;;;6.87;;
14510;SDS011;7341;50.930;4.038;2022-12-24T21:06:33;18.27;;;6.83;;
14510;SDS011;7341;50.930;4.038;2022-12-24T21:09:00;20.70;;;7.17;;
14510;SDS011;7341;50.930;4.038;2022-12-24T21:11:29;24.30;;;9.35;;
14510;SDS011;7341;50.930;4.038;2022-12-24T21:14:14;18.30;;;7.30;;
14510;SDS011;7341;50.930;4.038;2022-12-24T21:16:44;23.97;;;8.53;;
14510;SDS011;7341;50.930;4.038;2022-12-24T21:19:13;19.57;;;6.93;;
14510;SDS011;7341;50.930;4.038;2022-12-24T21:21:42;18.50;;;6.93;;
14510;SDS011;7341;50.930;4.038;2022-12-24T21:24:09;21.27;;;6.63;;
14510;SDS011;7341;50.930;4.038;2022-12-24T21:26:37;21.43;;;6.70;;
14510;SDS011;7341;50.930;4.038;2022-12-24T21:29:04;15.97;;;6.97;;
14510;SDS011;7341;50.930;4.038;2022-12-24T21:31:33;18.67;;;7.80;;
14510;SDS011;7341;50.930;4.038;2022-12-24T21:34:04;17.90;;;7.27;;
14510;SDS011;7341;50.930;4.038;2022-12-24T21:36:31;17.37;;;6.87;;
14510;SDS011;7341;50.930;4.038;2022-12-24T21:38:58;17.77;;;7.70;;
14510;SDS011;7341;50.930;4.038;2022-12-24T21:41:25;18.07;;;8.07;;
14510;SDS011;7341;50.930;4.038;2022-12-24T21:43:53;19.57;;;7.33;;